createdAt,value
2022-10-11T00:00:48.667Z,8.49
2022-10-11T00:01:48.737Z,8.47
2022-10-11T00:02:48.673Z,8.46
2022-10-11T00:03:48.709Z,8.46
2022-10-11T00:04:48.746Z,8.41
2022-10-11T00:05:48.778Z,8.39
2022-10-11T00:06:48.813Z,8.38
2022-10-11T00:07:48.839Z,8.37
2022-10-11T00:08:48.868Z,8.37
2022-10-11T00:09:48.900Z,8.36
2022-10-11T00:10:48.927Z,8.33
2022-10-11T00:11:48.956Z,8.33
2022-10-11T00:12:48.983Z,8.28
2022-10-11T00:13:49.006Z,8.28
2022-10-11T00:14:49.047Z,8.26
2022-10-11T00:15:49.072Z,8.25
2022-10-11T00:16:49.103Z,8.23
2022-10-11T00:17:49.142Z,8.23
2022-10-11T00:18:49.176Z,8.23
2022-10-11T00:19:49.214Z,8.21
2022-10-11T00:20:49.242Z,8.16
2022-10-11T00:21:49.274Z,8.14
2022-10-11T00:22:49.305Z,8.13
2022-10-11T00:23:49.328Z,8.12
2022-10-11T00:24:49.361Z,8.11
2022-10-11T00:25:49.390Z,8.1
2022-10-11T00:26:49.425Z,8.11
2022-10-11T00:27:49.466Z,8.05
2022-10-11T00:28:49.591Z,8.04
2022-10-11T00:29:49.532Z,8.02
2022-10-11T00:30:49.575Z,8.02
2022-10-11T00:31:49.627Z,8.01
2022-10-11T00:32:49.650Z,7.99
2022-10-11T00:33:49.678Z,7.98
2022-10-11T00:34:49.713Z,7.99
2022-10-11T00:35:49.745Z,7.92
2022-10-11T00:36:49.769Z,7.93
2022-10-11T00:37:49.808Z,7.88
2022-10-11T00:38:49.844Z,7.87
2022-10-11T00:39:49.872Z,7.88
2022-10-11T00:40:49.900Z,7.86
2022-10-11T00:41:49.923Z,7.86
2022-10-11T00:42:49.957Z,7.78
2022-10-11T00:43:49.981Z,7.75
2022-10-11T00:44:50.012Z,7.71
2022-10-11T00:45:50.047Z,7.74
2022-10-11T00:46:53.650Z,7.75
2022-10-11T00:47:50.114Z,7.74
2022-10-11T00:48:50.145Z,7.7
2022-10-11T00:49:50.178Z,7.67
2022-10-11T00:50:50.212Z,7.68
2022-10-11T00:51:50.241Z,7.68
2022-10-11T00:52:50.272Z,7.7
2022-10-11T00:53:50.308Z,7.66
2022-10-11T00:54:50.347Z,7.65
2022-10-11T00:55:50.375Z,7.65
2022-10-11T00:56:50.411Z,7.6
2022-10-11T00:57:50.465Z,7.57
2022-10-11T00:58:50.475Z,7.55
2022-10-11T00:59:50.506Z,7.52
2022-10-11T01:00:50.724Z,7.51
2022-10-11T01:01:50.643Z,7.48
2022-10-11T01:02:50.594Z,7.45
2022-10-11T01:03:50.629Z,7.44
2022-10-11T01:05:05.597Z,7.43
2022-10-11T01:05:50.703Z,7.42
2022-10-11T01:06:50.733Z,7.43
2022-10-11T01:07:50.766Z,7.42
2022-10-11T01:08:50.795Z,7.35
2022-10-11T01:09:50.821Z,7.36
2022-10-11T01:10:50.854Z,7.38
2022-10-11T01:11:50.893Z,7.35
2022-10-11T01:12:50.927Z,7.36
2022-10-11T01:13:50.963Z,7.35
2022-10-11T01:14:50.989Z,7.35
2022-10-11T01:15:51.016Z,7.32
2022-10-11T01:16:51.043Z,7.29
2022-10-11T01:17:51.073Z,7.28
2022-10-11T01:18:51.103Z,7.27
2022-10-11T01:19:51.135Z,7.26
2022-10-11T01:20:51.162Z,7.25
2022-10-11T01:21:51.190Z,7.25
2022-10-11T01:22:51.217Z,7.24
2022-10-11T01:23:51.245Z,7.16
2022-10-11T01:24:51.279Z,7.14
2022-10-11T01:25:51.315Z,7.12
2022-10-11T01:26:51.354Z,7.12
2022-10-11T01:27:51.383Z,7.12
2022-10-11T01:28:51.484Z,7.1
2022-10-11T01:29:51.445Z,7.12
2022-10-11T01:30:51.477Z,7.12
2022-10-11T01:31:51.521Z,7.05
2022-10-11T01:32:51.539Z,7.02
2022-10-11T01:33:51.573Z,7.02
2022-10-11T01:34:51.609Z,7.02
2022-10-11T01:35:51.645Z,7.01
2022-10-11T01:36:51.680Z,6.99
2022-10-11T01:37:51.717Z,7
2022-10-11T01:38:51.772Z,6.98
2022-10-11T01:39:51.793Z,6.99
2022-10-11T01:40:51.819Z,6.9
2022-10-11T01:41:51.856Z,6.89
2022-10-11T01:42:51.896Z,6.88
2022-10-11T01:43:51.932Z,6.87
2022-10-11T01:44:51.968Z,6.85
2022-10-11T01:45:51.992Z,6.86
2022-10-11T01:46:52.024Z,6.87
2022-10-11T01:47:52.058Z,6.84
2022-10-11T01:48:52.103Z,6.81
2022-10-11T01:49:52.123Z,6.8
2022-10-11T01:50:52.194Z,6.82
2022-10-11T01:51:52.197Z,6.85
2022-10-11T01:52:52.222Z,6.87
2022-10-11T01:53:52.248Z,6.88
2022-10-11T01:55:08.077Z,6.9
2022-10-11T01:55:52.309Z,6.92
2022-10-11T01:56:52.341Z,6.93
2022-10-11T01:57:52.377Z,6.93
2022-10-11T01:58:52.399Z,6.96
2022-10-11T01:59:52.430Z,6.91
2022-10-11T02:00:52.467Z,6.92
2022-10-11T02:01:52.574Z,6.92
2022-10-11T02:02:52.533Z,6.93
2022-10-11T02:03:52.562Z,6.92
2022-10-11T02:04:52.592Z,6.94
2022-10-11T02:05:52.622Z,6.92
2022-10-11T02:06:52.662Z,6.95
2022-10-11T02:07:52.695Z,6.95
2022-10-11T02:08:52.724Z,6.91
2022-10-11T02:09:52.756Z,6.91
2022-10-11T02:10:52.786Z,6.91
2022-10-11T02:11:52.822Z,6.91
2022-10-11T02:12:52.851Z,6.92
2022-10-11T02:13:52.873Z,6.92
2022-10-11T02:14:52.900Z,6.92
2022-10-11T02:15:52.943Z,6.91
2022-10-11T02:16:52.969Z,6.89
2022-10-11T02:17:53.005Z,6.88
2022-10-11T02:18:53.040Z,6.88
2022-10-11T02:19:53.070Z,6.86
2022-10-11T02:20:53.103Z,6.86
2022-10-11T02:21:53.125Z,6.86
2022-10-11T02:22:53.154Z,6.87
2022-10-11T02:23:53.201Z,6.86
2022-10-11T02:24:53.224Z,6.86
2022-10-11T02:25:53.261Z,6.86
2022-10-11T02:26:53.294Z,6.86
2022-10-11T02:27:53.326Z,6.84
2022-10-11T02:28:53.412Z,6.84
2022-10-11T02:29:53.396Z,6.84
2022-10-11T02:30:53.427Z,6.82
2022-10-11T02:31:53.461Z,6.83
2022-10-11T02:32:53.499Z,6.84
2022-10-11T02:33:53.531Z,6.84
2022-10-11T02:34:53.565Z,6.78
2022-10-11T02:35:53.601Z,6.78
2022-10-11T02:36:53.631Z,6.79
2022-10-11T02:37:53.664Z,6.76
2022-10-11T02:38:53.697Z,6.76
2022-10-11T02:39:53.731Z,6.76
2022-10-11T02:40:53.770Z,6.76
2022-10-11T02:41:53.800Z,6.76
2022-10-11T02:42:53.836Z,6.75
2022-10-11T02:43:53.874Z,6.75
2022-10-11T02:44:53.902Z,6.76
2022-10-11T02:45:53.943Z,6.74
2022-10-11T02:46:53.971Z,6.73
2022-10-11T02:47:54.003Z,6.68
2022-10-11T02:48:54.036Z,6.68
2022-10-11T02:49:54.068Z,6.69
2022-10-11T02:50:54.105Z,6.69
2022-10-11T02:51:54.128Z,6.69
2022-10-11T02:52:54.164Z,6.69
2022-10-11T02:53:54.192Z,6.65
2022-10-11T02:54:54.234Z,6.65
2022-10-11T02:55:54.263Z,6.66
2022-10-11T02:56:54.293Z,6.66
2022-10-11T02:57:54.331Z,6.67
2022-10-11T02:58:54.359Z,6.65
2022-10-11T02:59:54.380Z,6.65
2022-10-11T03:00:54.420Z,6.57
2022-10-11T03:01:54.486Z,6.56
2022-10-11T03:02:54.474Z,6.57
2022-10-11T03:03:54.510Z,6.58
2022-10-11T03:04:54.546Z,6.58
2022-10-11T03:05:54.580Z,6.61
2022-10-11T03:06:54.605Z,6.62
2022-10-11T03:07:54.645Z,6.63
2022-10-11T03:08:54.679Z,6.65
2022-10-11T03:09:54.713Z,6.65
2022-10-11T03:10:54.747Z,6.66
2022-10-11T03:11:54.784Z,6.68
2022-10-11T03:12:54.808Z,6.68
2022-10-11T03:13:54.845Z,6.68
2022-10-11T03:14:54.882Z,6.69
2022-10-11T03:16:02.864Z,6.7
2022-10-11T03:16:54.955Z,6.7
2022-10-11T03:17:55.014Z,6.7
2022-10-11T03:18:55.025Z,6.71
2022-10-11T03:19:55.056Z,6.71
2022-10-11T03:20:55.091Z,6.69
2022-10-11T03:21:55.121Z,6.69
2022-10-11T03:22:55.154Z,6.7
2022-10-11T03:23:55.190Z,6.69
2022-10-11T03:24:58.485Z,6.7
2022-10-11T03:25:55.251Z,6.7
2022-10-11T03:26:55.287Z,6.71
2022-10-11T03:27:55.318Z,6.71
2022-10-11T03:28:55.398Z,6.72
2022-10-11T03:29:55.386Z,6.72
2022-10-11T03:30:55.417Z,6.73
2022-10-11T03:31:55.452Z,6.73
2022-10-11T03:32:55.489Z,6.71
2022-10-11T03:33:55.521Z,6.71
2022-10-11T03:34:55.553Z,6.72
2022-10-11T03:35:55.718Z,6.71
2022-10-11T03:36:55.616Z,6.71
2022-10-11T03:37:55.645Z,6.72
2022-10-11T03:38:55.673Z,6.69
2022-10-11T03:39:55.707Z,6.7
2022-10-11T03:40:55.739Z,6.71
2022-10-11T03:41:55.772Z,6.72
2022-10-11T03:42:55.812Z,6.73
2022-10-11T03:43:55.845Z,6.73
2022-10-11T03:44:55.887Z,6.73
2022-10-11T03:45:55.920Z,6.73
2022-10-11T03:46:55.953Z,6.72
2022-10-11T03:47:55.987Z,6.73
2022-10-11T03:48:56.018Z,6.73
2022-10-11T03:49:56.045Z,6.71
2022-10-11T03:50:56.073Z,6.67
2022-10-11T03:51:56.119Z,6.68
2022-10-11T03:52:56.139Z,6.68
2022-10-11T03:53:56.177Z,6.66
2022-10-11T03:54:56.213Z,6.67
2022-10-11T03:55:56.249Z,6.66
2022-10-11T03:56:56.288Z,6.65
2022-10-11T03:57:56.330Z,6.65
2022-10-11T03:58:56.359Z,6.65
2022-10-11T03:59:56.392Z,6.65
2022-10-11T04:00:56.430Z,6.62
2022-10-11T04:01:56.495Z,6.62
2022-10-11T04:02:56.487Z,6.62
2022-10-11T04:03:56.520Z,6.62
2022-10-11T04:04:56.557Z,6.6
2022-10-11T04:05:56.591Z,6.6
2022-10-11T04:06:56.630Z,6.6
2022-10-11T04:07:56.668Z,6.61
2022-10-11T04:08:56.700Z,6.61
2022-10-11T04:09:56.733Z,6.58
2022-10-11T04:10:56.773Z,6.6
2022-10-11T04:11:56.806Z,6.58
2022-10-11T04:12:56.838Z,6.59
2022-10-11T04:13:56.869Z,6.57
2022-10-11T04:14:56.920Z,6.58
2022-10-11T04:15:56.937Z,6.57
2022-10-11T04:17:00.208Z,6.56
2022-10-11T04:17:56.993Z,6.56
2022-10-11T04:18:57.027Z,6.54
2022-10-11T04:19:57.059Z,6.52
2022-10-11T04:20:57.091Z,6.51
2022-10-11T04:21:57.118Z,6.51
2022-10-11T04:22:57.146Z,6.51
2022-10-11T04:23:57.172Z,6.51
2022-10-11T04:24:57.205Z,6.52
2022-10-11T04:25:57.239Z,6.52
2022-10-11T04:26:57.276Z,6.51
2022-10-11T04:27:57.300Z,6.51
2022-10-11T04:28:57.405Z,6.48
2022-10-11T04:29:57.373Z,6.49
2022-10-11T04:30:57.395Z,6.5
2022-10-11T04:31:57.435Z,6.51
2022-10-11T04:32:57.458Z,6.51
2022-10-11T04:33:57.497Z,6.51
2022-10-11T04:34:57.530Z,6.51
2022-10-11T04:35:57.557Z,6.51
2022-10-11T04:36:57.611Z,6.52
2022-10-11T04:37:57.640Z,6.52
2022-10-11T04:38:57.663Z,6.52
2022-10-11T04:39:57.691Z,6.53
2022-10-11T04:40:57.743Z,6.53
2022-10-11T04:41:57.752Z,6.53
2022-10-11T04:42:57.785Z,6.52
2022-10-11T04:43:57.810Z,6.52
2022-10-11T04:44:57.842Z,6.53
2022-10-11T04:45:57.868Z,6.53
2022-10-11T04:46:57.898Z,6.51
2022-10-11T04:47:57.934Z,6.5
2022-10-11T04:48:57.969Z,6.5
2022-10-11T04:49:58.026Z,6.51
2022-10-11T04:50:58.059Z,6.5
2022-10-11T04:51:58.064Z,6.52
2022-10-11T04:52:58.081Z,6.53
2022-10-11T04:53:58.117Z,6.53
2022-10-11T04:54:58.155Z,6.52
2022-10-11T04:55:58.208Z,6.54
2022-10-11T04:56:58.228Z,6.54
2022-10-11T04:57:58.255Z,6.54
2022-10-11T04:58:58.287Z,6.54
2022-10-11T04:59:58.320Z,6.54
2022-10-11T05:00:58.347Z,6.54
2022-10-11T05:01:58.456Z,6.52
2022-10-11T05:02:58.408Z,6.52
2022-10-11T05:03:58.445Z,6.51
2022-10-11T05:04:58.484Z,6.44
2022-10-11T05:06:03.192Z,6.42
2022-10-11T05:06:58.572Z,6.41
2022-10-11T05:07:58.576Z,6.41
2022-10-11T05:08:58.600Z,6.41
2022-10-11T05:09:58.636Z,6.39
2022-10-11T05:10:58.664Z,6.39
2022-10-11T05:11:58.721Z,6.4
2022-10-11T05:12:58.728Z,6.4
2022-10-11T05:13:58.763Z,6.4
2022-10-11T05:14:58.790Z,6.4
2022-10-11T05:15:58.820Z,6.4
2022-10-11T05:16:58.856Z,6.4
2022-10-11T05:17:58.897Z,6.4
2022-10-11T05:18:58.923Z,6.4
2022-10-11T05:19:58.968Z,6.38
2022-10-11T05:20:58.994Z,6.37
2022-10-11T05:21:59.021Z,6.37
2022-10-11T05:22:59.053Z,6.37
2022-10-11T05:23:59.087Z,6.39
2022-10-11T05:24:59.116Z,6.34
2022-10-11T05:25:59.146Z,6.34
2022-10-11T05:27:03.181Z,6.34
2022-10-11T05:27:59.212Z,6.32
2022-10-11T05:28:59.357Z,6.32
2022-10-11T05:29:59.284Z,6.32
2022-10-11T05:30:59.303Z,6.31
2022-10-11T05:31:59.350Z,6.3
2022-10-11T05:32:59.365Z,6.27
2022-10-11T05:33:59.399Z,6.21
2022-10-11T05:34:59.434Z,6.21
2022-10-11T05:35:59.467Z,6.21
2022-10-11T05:36:59.499Z,6.2
2022-10-11T05:37:59.523Z,6.17
2022-10-11T05:38:59.553Z,6.15
2022-10-11T05:39:59.586Z,6.15
2022-10-11T05:40:59.615Z,6.17
2022-10-11T05:41:59.648Z,6.17
2022-10-11T05:42:59.678Z,6.17
2022-10-11T05:43:59.713Z,6.15
2022-10-11T05:44:59.744Z,6.15
2022-10-11T05:45:59.776Z,6.17
2022-10-11T05:46:59.799Z,6.18
2022-10-11T05:47:59.860Z,6.21
2022-10-11T05:48:59.871Z,6.21
2022-10-11T05:49:59.903Z,6.24
2022-10-11T05:50:59.938Z,6.24
2022-10-11T05:51:59.972Z,6.28
2022-10-11T05:53:00.018Z,6.28
2022-10-11T05:54:00.034Z,6.23
2022-10-11T05:55:00.126Z,6.26
2022-10-11T05:56:00.108Z,6.25
2022-10-11T05:57:00.140Z,6.25
2022-10-11T05:58:00.175Z,6.25
2022-10-11T05:59:02.595Z,6.25
2022-10-11T06:00:00.234Z,6.26
2022-10-11T06:01:00.392Z,6.26
2022-10-11T06:02:00.300Z,6.27
2022-10-11T06:03:00.339Z,6.27
2022-10-11T06:04:00.363Z,6.26
2022-10-11T06:05:00.418Z,6.26
2022-10-11T06:06:00.462Z,6.28
2022-10-11T06:07:00.479Z,6.28
2022-10-11T06:08:00.508Z,6.27
2022-10-11T06:09:00.541Z,6.28
2022-10-11T06:10:00.572Z,6.29
2022-10-11T06:11:00.631Z,6.31
2022-10-11T06:12:00.648Z,6.33
2022-10-11T06:13:00.690Z,6.4
2022-10-11T06:14:00.728Z,6.42
2022-10-11T06:15:00.753Z,6.45
2022-10-11T06:16:00.794Z,6.45
2022-10-11T06:17:00.799Z,6.46
2022-10-11T06:18:00.823Z,6.47
2022-10-11T06:19:00.852Z,6.48
2022-10-11T06:20:00.890Z,6.5
2022-10-11T06:21:00.920Z,6.5
2022-10-11T06:22:00.956Z,6.56
2022-10-11T06:23:00.995Z,6.58
2022-10-11T06:24:01.569Z,6.58
2022-10-11T06:25:01.045Z,6.59
2022-10-11T06:26:01.084Z,6.59
2022-10-11T06:27:01.109Z,6.63
2022-10-11T06:28:01.131Z,6.62
2022-10-11T06:29:01.224Z,6.62
2022-10-11T06:30:01.193Z,6.66
2022-10-11T06:31:01.222Z,6.66
2022-10-11T06:32:01.256Z,6.66
2022-10-11T06:33:04.835Z,6.66
2022-10-11T06:34:01.317Z,6.71
2022-10-11T06:35:01.353Z,6.72
2022-10-11T06:36:01.750Z,6.74
2022-10-11T06:37:01.418Z,6.74
2022-10-11T06:38:01.461Z,6.76
2022-10-11T06:39:01.478Z,6.76
2022-10-11T06:40:01.505Z,6.77
2022-10-11T06:41:01.553Z,6.83
2022-10-11T06:42:01.575Z,6.85
2022-10-11T06:43:01.625Z,6.88
2022-10-11T06:44:01.646Z,6.86
2022-10-11T06:45:01.694Z,6.88
2022-10-11T06:46:02.050Z,6.92
2022-10-11T06:47:01.751Z,6.92
2022-10-11T06:48:01.777Z,6.93
2022-10-11T06:49:01.811Z,6.97
2022-10-11T06:50:01.839Z,6.98
2022-10-11T06:51:01.922Z,6.98
2022-10-11T06:52:01.903Z,7.04
2022-10-11T06:53:01.937Z,7.06
2022-10-11T06:54:02.001Z,7.09
2022-10-11T06:55:02.006Z,7.06
2022-10-11T06:56:02.617Z,7.07
2022-10-11T06:57:02.066Z,7.11
2022-10-11T06:58:02.120Z,7.12
2022-10-11T06:59:02.129Z,7.13
2022-10-11T07:00:02.182Z,7.13
2022-10-11T07:01:02.297Z,7.15
2022-10-11T07:02:02.248Z,7.15
2022-10-11T07:03:02.275Z,7.2
2022-10-11T07:04:02.335Z,7.22
2022-10-11T07:05:02.339Z,7.23
2022-10-11T07:06:02.777Z,7.27
2022-10-11T07:07:02.384Z,7.25
2022-10-11T07:08:02.433Z,7.29
2022-10-11T07:09:02.462Z,7.32
2022-10-11T07:10:02.500Z,7.37
2022-10-11T07:11:02.520Z,7.39
2022-10-11T07:12:02.540Z,7.39
2022-10-11T07:13:02.570Z,7.39
2022-10-11T07:14:02.613Z,7.45
2022-10-11T07:15:02.635Z,7.49
2022-10-11T07:16:03.183Z,7.51
2022-10-11T07:17:02.690Z,7.56
2022-10-11T07:18:02.725Z,7.56
2022-10-11T07:19:02.761Z,7.6
2022-10-11T07:20:02.796Z,7.6
2022-10-11T07:21:02.830Z,7.6
2022-10-11T07:22:02.860Z,7.68
2022-10-11T07:23:02.888Z,7.71
2022-10-11T07:24:02.916Z,7.75
2022-10-11T07:25:02.948Z,7.78
2022-10-11T07:26:03.151Z,7.84
2022-10-11T07:27:03.015Z,7.84
2022-10-11T07:28:03.042Z,7.85
2022-10-11T07:29:03.111Z,7.88
2022-10-11T07:30:03.100Z,7.94
2022-10-11T07:31:03.138Z,7.98
2022-10-11T07:32:03.162Z,8.01
2022-10-11T07:33:03.191Z,8.06
2022-10-11T07:34:03.229Z,8.08
2022-10-11T07:35:03.260Z,8.09
2022-10-11T07:36:03.703Z,8.11
2022-10-11T07:37:03.335Z,8.12
2022-10-11T07:38:03.357Z,8.17
2022-10-11T07:39:03.393Z,8.17
2022-10-11T07:40:03.421Z,8.21
2022-10-11T07:41:03.460Z,8.25
2022-10-11T07:42:03.492Z,8.22
2022-10-11T07:43:03.555Z,8.24
2022-10-11T07:44:03.556Z,8.24
2022-10-11T07:45:03.581Z,8.23
2022-10-11T07:46:04.068Z,8.26
2022-10-11T07:47:07.729Z,8.29
2022-10-11T07:48:03.710Z,8.34
2022-10-11T07:49:03.723Z,8.34
2022-10-11T07:50:03.765Z,8.38
2022-10-11T07:51:03.781Z,8.38
2022-10-11T07:52:03.863Z,8.38
2022-10-11T07:53:03.876Z,8.39
2022-10-11T07:54:07.244Z,8.41
2022-10-11T07:55:03.916Z,8.42
2022-10-11T07:56:04.489Z,8.45
2022-10-11T07:57:03.983Z,8.47
2022-10-11T07:58:04.043Z,8.47
2022-10-11T07:59:04.056Z,8.48
2022-10-11T08:00:04.068Z,8.49
2022-10-11T08:01:04.214Z,8.51
2022-10-11T08:02:04.145Z,8.53
2022-10-11T08:03:04.164Z,8.54
2022-10-11T08:04:04.196Z,8.54
2022-10-11T08:05:04.229Z,8.53
2022-10-11T08:06:04.607Z,8.54
2022-10-11T08:07:04.287Z,8.55
2022-10-11T08:08:04.334Z,8.55
2022-10-11T08:09:04.359Z,8.56
2022-10-11T08:10:04.392Z,8.6
2022-10-11T08:11:04.429Z,8.6
2022-10-11T08:12:04.465Z,8.6
2022-10-11T08:13:04.718Z,8.64
2022-10-11T08:14:04.526Z,8.69
2022-10-11T08:15:04.569Z,8.69
2022-10-11T08:16:04.974Z,8.69
2022-10-11T08:17:04.618Z,8.68
2022-10-11T08:18:04.642Z,8.7
2022-10-11T08:19:04.676Z,8.7
2022-10-11T08:20:04.701Z,8.71
2022-10-11T08:21:04.734Z,8.73
2022-10-11T08:22:04.769Z,8.73
2022-10-11T08:23:20.370Z,8.75
2022-10-11T08:24:20.386Z,8.77
2022-10-11T08:25:20.435Z,8.78
2022-10-11T08:26:20.444Z,8.8
2022-10-11T08:27:20.496Z,8.81
2022-10-11T08:28:20.578Z,8.84
2022-10-11T08:29:20.542Z,8.83
2022-10-11T08:30:20.574Z,8.83
2022-10-11T08:31:20.639Z,8.86
2022-10-11T08:32:20.668Z,8.86
2022-10-11T08:33:20.675Z,8.87
2022-10-11T08:34:20.712Z,8.89
2022-10-11T08:35:20.743Z,8.92
2022-10-11T08:36:20.779Z,8.95
2022-10-11T08:37:20.831Z,8.98
2022-10-11T08:38:20.846Z,9.02
2022-10-11T08:39:20.876Z,8.99
2022-10-11T08:40:20.917Z,9.02
2022-10-11T08:41:20.985Z,9
2022-10-11T08:42:20.979Z,9.02
2022-10-11T08:43:21.012Z,9.05
2022-10-11T08:44:21.045Z,9.07
2022-10-11T08:45:21.092Z,9.07
2022-10-11T08:46:21.112Z,9.06
2022-10-11T08:47:21.143Z,9.06
2022-10-11T08:48:21.183Z,9.13
2022-10-11T08:49:21.235Z,9.14
2022-10-11T08:50:21.261Z,9.14
2022-10-11T08:51:21.275Z,9.19
2022-10-11T08:52:21.308Z,9.23
2022-10-11T08:53:21.337Z,9.25
2022-10-11T08:54:21.371Z,9.26
2022-10-11T08:55:21.422Z,9.23
2022-10-11T08:56:21.440Z,9.26
2022-10-11T08:57:21.462Z,9.27
2022-10-11T08:58:21.490Z,9.29
2022-10-11T08:59:21.512Z,9.35
2022-10-11T09:00:21.661Z,9.35
2022-10-11T09:01:21.665Z,9.42
2022-10-11T09:02:21.635Z,9.45
2022-10-11T09:03:21.655Z,9.44
2022-10-11T09:04:21.675Z,9.48
2022-10-11T09:05:21.704Z,9.46
2022-10-11T09:06:21.758Z,9.44
2022-10-11T09:07:21.771Z,9.43
2022-10-11T09:08:21.804Z,9.43
2022-10-11T09:09:21.824Z,9.44
2022-10-11T09:10:21.854Z,9.45
2022-10-11T09:11:21.935Z,9.47
2022-10-11T09:12:21.912Z,9.48
2022-10-11T09:13:21.940Z,9.48
2022-10-11T09:14:21.978Z,9.5
2022-10-11T09:15:22.003Z,9.49
2022-10-11T09:16:22.025Z,9.5
2022-10-11T09:17:22.080Z,9.53
2022-10-11T09:18:22.111Z,9.56
2022-10-11T09:19:22.122Z,9.54
2022-10-11T09:20:22.157Z,9.52
2022-10-11T09:21:22.185Z,9.51
2022-10-11T09:22:23.951Z,9.54
2022-10-11T09:23:22.265Z,9.54
2022-10-11T09:24:22.294Z,9.57
2022-10-11T09:25:22.300Z,9.59
2022-10-11T09:26:22.334Z,9.61
2022-10-11T09:27:33.223Z,9.62
2022-10-11T09:28:22.496Z,9.66
2022-10-11T09:29:22.435Z,9.63
2022-10-11T09:30:22.495Z,9.72
2022-10-11T09:31:22.490Z,9.72
2022-10-11T09:32:22.546Z,9.8
2022-10-11T09:33:22.558Z,9.83
2022-10-11T09:34:22.606Z,9.86
2022-10-11T09:35:22.641Z,9.89
2022-10-11T09:36:22.657Z,9.91
2022-10-11T09:37:22.677Z,9.93
2022-10-11T09:38:22.703Z,9.98
2022-10-11T09:39:22.753Z,10.02
2022-10-11T09:40:22.774Z,10.06
2022-10-11T09:41:22.791Z,10.11
2022-10-11T09:42:22.819Z,10.14
2022-10-11T09:43:22.858Z,10.16
2022-10-11T09:44:22.911Z,10.15
2022-10-11T09:45:22.920Z,10.23
2022-10-11T09:46:22.951Z,10.23
2022-10-11T09:47:22.985Z,10.23
2022-10-11T09:48:23.013Z,10.25
2022-10-11T09:49:23.065Z,10.31
2022-10-11T09:50:23.079Z,10.34
2022-10-11T09:51:23.136Z,10.41
2022-10-11T09:52:23.148Z,10.47
2022-10-11T09:53:23.182Z,10.53
2022-10-11T09:54:23.259Z,10.58
2022-10-11T09:55:23.248Z,10.72
2022-10-11T09:56:23.301Z,10.74
2022-10-11T09:57:23.336Z,10.84
2022-10-11T09:58:23.358Z,10.89
2022-10-11T09:59:23.389Z,10.99
2022-10-11T10:00:23.441Z,11.07
2022-10-11T10:01:23.518Z,11.17
2022-10-11T10:02:23.475Z,11.31
2022-10-11T10:03:23.500Z,11.32
2022-10-11T10:04:23.521Z,11.34
2022-10-11T10:05:23.552Z,11.6
2022-10-11T10:06:23.575Z,11.63
2022-10-11T10:07:23.609Z,11.79
2022-10-11T10:08:23.650Z,11.84
2022-10-11T10:09:23.671Z,11.89
2022-10-11T10:10:23.708Z,11.92
2022-10-11T10:11:23.760Z,11.92
2022-10-11T10:12:23.760Z,11.91
2022-10-11T10:13:23.794Z,12
2022-10-11T10:14:23.830Z,12.14
2022-10-11T10:15:23.867Z,12.22
2022-10-11T10:16:23.911Z,12.27
2022-10-11T10:17:23.927Z,12.28
2022-10-11T10:18:23.945Z,12.31
2022-10-11T10:19:23.982Z,12.33
2022-10-11T10:20:24.018Z,12.32
2022-10-11T10:21:24.068Z,12.31
2022-10-11T10:22:24.109Z,12.44
2022-10-11T10:23:24.111Z,12.55
2022-10-11T10:24:24.145Z,12.73
2022-10-11T10:25:24.180Z,12.89
2022-10-11T10:26:24.219Z,12.95
2022-10-11T10:27:24.269Z,12.94
2022-10-11T10:28:24.331Z,12.94
2022-10-11T10:29:24.304Z,13.01
2022-10-11T10:30:24.332Z,13.04
2022-10-11T10:31:24.383Z,13.15
2022-10-11T10:32:24.392Z,13.24
2022-10-11T10:33:24.418Z,13.28
2022-10-11T10:34:24.453Z,13.38
2022-10-11T10:35:24.499Z,13.36
2022-10-11T10:36:24.542Z,13.39
2022-10-11T10:37:24.567Z,13.51
2022-10-11T10:38:26.795Z,13.55
2022-10-11T10:39:24.625Z,13.6
2022-10-11T10:40:24.637Z,13.6
2022-10-11T10:41:24.667Z,13.66
2022-10-11T10:42:24.701Z,13.75
2022-10-11T10:43:24.746Z,13.79
2022-10-11T10:44:24.767Z,13.85
2022-10-11T10:45:24.803Z,13.77
2022-10-11T10:46:24.834Z,13.78
2022-10-11T10:47:24.869Z,13.82
2022-10-11T10:48:24.903Z,13.88
2022-10-11T10:49:53.228Z,13.88
2022-10-11T10:50:24.959Z,13.9
2022-10-11T10:51:24.994Z,13.96
2022-10-11T10:52:25.026Z,13.94
2022-10-11T10:53:25.056Z,13.78
2022-10-11T10:54:25.085Z,13.71
2022-10-11T10:55:25.118Z,13.65
2022-10-11T10:56:25.146Z,13.57
2022-10-11T10:57:25.175Z,13.55
2022-10-11T10:58:25.205Z,13.54
2022-10-11T10:59:25.238Z,13.46
2022-10-11T11:00:25.269Z,13.47
2022-10-11T11:01:25.353Z,13.42
2022-10-11T11:02:40.414Z,13.36
2022-10-11T11:03:25.369Z,13.27
2022-10-11T11:04:25.400Z,13.27
2022-10-11T11:05:25.448Z,13.22
2022-10-11T11:06:25.462Z,13.2
2022-10-11T11:07:25.522Z,13.21
2022-10-11T11:08:25.530Z,13.1
2022-10-11T11:09:25.561Z,13.02
2022-10-11T11:10:25.616Z,12.93
2022-10-11T11:11:25.637Z,12.85
2022-10-11T11:12:25.694Z,12.96
2022-10-11T11:13:25.712Z,13.02
2022-10-11T11:14:25.738Z,12.91
2022-10-11T11:15:32.029Z,12.9
2022-10-11T11:16:25.815Z,12.9
2022-10-11T11:17:25.846Z,12.8
2022-10-11T11:18:25.895Z,12.71
2022-10-11T11:19:25.899Z,12.65
2022-10-11T11:20:25.933Z,12.66
2022-10-11T11:21:25.994Z,12.67
2022-10-11T11:22:30.396Z,12.8
2022-10-11T11:23:26.041Z,12.83
2022-10-11T11:24:26.069Z,12.79
2022-10-11T11:25:26.096Z,12.74
2022-10-11T11:26:26.155Z,12.76
2022-10-11T11:27:26.166Z,12.76
2022-10-11T11:28:26.236Z,12.81
2022-10-11T11:29:26.222Z,12.84
2022-10-11T11:30:26.276Z,12.75
2022-10-11T11:31:26.293Z,12.69
2022-10-11T11:32:26.330Z,12.79
2022-10-11T11:33:26.358Z,12.91
2022-10-11T11:34:26.409Z,12.9
2022-10-11T11:35:26.422Z,12.86
2022-10-11T11:36:26.463Z,12.83
2022-10-11T11:37:26.492Z,12.67
2022-10-11T11:38:29.572Z,12.57
2022-10-11T11:39:26.559Z,12.4
2022-10-11T11:40:26.571Z,12.31
2022-10-11T11:41:26.618Z,12.19
2022-10-11T11:42:26.625Z,12.18
2022-10-11T11:43:26.659Z,12.21
2022-10-11T11:44:27.605Z,12.22
2022-10-11T11:45:26.722Z,12.21
2022-10-11T11:46:26.774Z,12.11
2022-10-11T11:47:26.785Z,12.04
2022-10-11T11:48:26.806Z,11.96
2022-10-11T11:49:26.853Z,11.84
2022-10-11T11:50:28.655Z,11.76
2022-10-11T11:51:30.422Z,11.82
2022-10-11T11:52:26.937Z,11.84
2022-10-11T11:53:26.984Z,11.74
2022-10-11T11:54:26.992Z,11.71
2022-10-11T11:55:27.035Z,11.74
2022-10-11T11:56:27.068Z,11.73
2022-10-11T11:57:27.097Z,11.68
2022-10-11T11:58:27.109Z,11.66
2022-10-11T11:59:27.192Z,11.69
2022-10-11T12:00:27.183Z,11.69
2022-10-11T12:01:31.168Z,11.72
2022-10-11T12:02:27.365Z,11.74
2022-10-11T12:03:27.271Z,11.68
2022-10-11T12:04:27.286Z,11.58
2022-10-11T12:05:27.352Z,11.45
2022-10-11T12:06:27.354Z,11.4
2022-10-11T12:07:27.387Z,11.42
2022-10-11T12:08:27.417Z,11.36
2022-10-11T12:09:27.456Z,11.34
2022-10-11T12:10:27.500Z,11.35
2022-10-11T12:11:30.572Z,11.29
2022-10-11T12:12:27.551Z,11.3
2022-10-11T12:13:32.140Z,11.29
2022-10-11T12:14:27.632Z,11.27
2022-10-11T12:15:27.652Z,11.27
2022-10-11T12:16:27.698Z,11.3
2022-10-11T12:17:27.719Z,11.2
2022-10-11T12:18:27.746Z,11.23
2022-10-11T12:19:27.765Z,11.24
2022-10-11T12:20:27.797Z,11.32
2022-10-11T12:21:27.825Z,11.41
2022-10-11T12:22:27.857Z,11.36
2022-10-11T12:23:27.885Z,11.45
2022-10-11T12:24:27.936Z,11.38
2022-10-11T12:25:27.944Z,11.32
2022-10-11T12:26:27.987Z,11.42
2022-10-11T12:27:28.011Z,11.45
2022-10-11T12:28:28.067Z,11.34
2022-10-11T12:29:29.235Z,11.33
2022-10-11T12:30:28.091Z,11.32
2022-10-11T12:31:28.124Z,11.28
2022-10-11T12:32:28.166Z,11.25
2022-10-11T12:33:28.223Z,11.15
2022-10-11T12:34:28.287Z,11.19
2022-10-11T12:35:28.276Z,11.1
2022-10-11T12:36:28.312Z,11.12
2022-10-11T12:37:28.344Z,11.15
2022-10-11T12:38:28.381Z,11.07
2022-10-11T12:39:28.410Z,10.99
2022-10-11T12:40:28.438Z,11.02
2022-10-11T12:41:28.474Z,10.94
2022-10-11T12:42:28.506Z,10.85
2022-10-11T12:43:28.531Z,10.88
2022-10-11T12:44:28.592Z,10.87
2022-10-11T12:45:28.606Z,10.81
2022-10-11T12:46:28.642Z,10.71
2022-10-11T12:47:28.662Z,10.81
2022-10-11T12:48:33.917Z,10.82
2022-10-11T12:49:28.762Z,10.71
2022-10-11T12:50:28.788Z,10.69
2022-10-11T12:51:28.793Z,10.66
2022-10-11T12:52:28.823Z,10.62
2022-10-11T12:53:28.853Z,10.63
2022-10-11T12:54:32.104Z,10.66
2022-10-11T12:55:28.943Z,10.69
2022-10-11T12:56:28.966Z,10.73
2022-10-11T12:57:28.984Z,10.68
2022-10-11T12:58:29.015Z,10.74
2022-10-11T12:59:29.075Z,10.78
2022-10-11T13:00:29.094Z,10.88
2022-10-11T13:01:29.207Z,10.9
2022-10-11T13:02:29.205Z,10.95
2022-10-11T13:03:32.298Z,10.85
2022-10-11T13:04:29.228Z,10.81
2022-10-11T13:05:29.264Z,10.79
2022-10-11T13:06:29.279Z,10.8
2022-10-11T13:07:29.317Z,10.7
2022-10-11T13:08:29.367Z,10.7
2022-10-11T13:09:29.381Z,10.78
2022-10-11T13:10:29.440Z,10.78
2022-10-11T13:11:29.451Z,10.82
2022-10-11T13:12:29.489Z,10.83
2022-10-11T13:13:29.511Z,10.76
2022-10-11T13:14:29.542Z,10.77